createdAt,value
2022-10-07T00:02:21.364Z,33.75
2022-10-07T00:05:24.805Z,30.75
2022-10-07T00:08:28.725Z,31.00
2022-10-07T00:11:33.646Z,33.75
2022-10-07T00:14:37.449Z,32.75
2022-10-07T00:17:41.068Z,34.50
2022-10-07T00:20:45.150Z,35.50
2022-10-07T00:23:49.627Z,40.50
2022-10-07T00:26:54.753Z,35.00
2022-10-07T00:30:00.773Z,37.75
2022-10-07T00:33:04.655Z,36.00
2022-10-07T00:36:09.287Z,36.25
2022-10-07T00:39:18.396Z,37.25
2022-10-07T00:42:25.161Z,36.50
2022-10-07T00:45:30.054Z,33.00
2022-10-07T00:48:35.732Z,33.00
2022-10-07T00:51:42.160Z,35.00
2022-10-07T00:54:45.867Z,31.00
2022-10-07T00:57:54.864Z,32.25
2022-10-07T01:00:59.096Z,29.00
2022-10-07T01:04:02.943Z,37.75
2022-10-07T01:07:06.377Z,37.00
2022-10-07T01:10:12.866Z,36.75
2022-10-07T01:13:27.795Z,37.25
2022-10-07T01:16:41.041Z,34.50
2022-10-07T01:20:00.479Z,34.25
2022-10-07T01:23:18.696Z,32.25
2022-10-07T01:26:43.139Z,36.00
2022-10-07T01:29:56.118Z,34.00
2022-10-07T01:33:05.918Z,34.25
2022-10-07T01:36:14.921Z,24.75
2022-10-07T01:39:24.096Z,36.25
2022-10-07T01:42:30.948Z,38.00
2022-10-07T01:45:39.919Z,27.50
2022-10-07T01:48:43.740Z,35.75
2022-10-07T01:52:02.038Z,35.75
2022-10-07T01:55:26.604Z,28.25
2022-10-07T01:59:09.037Z,32.75
2022-10-07T02:02:25.873Z,37.50
2022-10-07T02:05:41.481Z,37.50
2022-10-07T02:08:50.155Z,29.00
2022-10-07T02:12:00.640Z,21.25
2022-10-07T02:15:13.459Z,31.75
2022-10-07T02:18:20.720Z,35.25
2022-10-07T02:21:30.611Z,31.50
2022-10-07T02:24:36.841Z,30.75
2022-10-07T02:27:46.756Z,30.00
2022-10-07T02:30:55.133Z,30.75
2022-10-07T02:34:03.735Z,31.75
2022-10-07T02:37:14.953Z,30.50
2022-10-07T02:40:19.714Z,27.75
2022-10-07T02:43:31.285Z,34.75
2022-10-07T02:46:41.831Z,30.00
2022-10-07T02:49:53.316Z,22.00
2022-10-07T02:52:58.614Z,32.00
2022-10-07T02:56:05.294Z,30.50
2022-10-07T02:59:30.207Z,27.75
2022-10-07T03:02:38.888Z,28.50
2022-10-07T03:05:44.662Z,37.25
2022-10-07T03:08:48.713Z,28.00
2022-10-07T03:11:52.696Z,30.75
2022-10-07T03:14:56.350Z,33.00
2022-10-07T03:18:00.152Z,33.25
2022-10-07T03:21:07.402Z,31.25
2022-10-07T03:24:11.765Z,34.00
2022-10-07T03:27:20.458Z,37.25
2022-10-07T03:30:24.430Z,31.75
2022-10-07T03:33:29.820Z,33.75
2022-10-07T03:36:43.638Z,29.00
2022-10-07T03:39:48.860Z,33.25
2022-10-07T03:42:52.476Z,34.00
2022-10-07T03:45:57.075Z,31.75
2022-10-07T03:49:01.129Z,33.00
2022-10-07T03:52:07.529Z,17.75
2022-10-07T03:55:11.615Z,33.75
2022-10-07T03:58:15.165Z,30.50
2022-10-07T04:01:19.232Z,33.75
2022-10-07T04:04:29.957Z,38.50
2022-10-07T04:07:35.535Z,40.00
2022-10-07T04:10:40.031Z,39.50
2022-10-07T04:13:45.105Z,35.25
2022-10-07T04:16:49.228Z,36.75
2022-10-07T04:19:53.390Z,40.50
2022-10-07T04:22:58.461Z,44.00
2022-10-07T04:26:02.705Z,42.50
2022-10-07T04:29:07.051Z,38.25
2022-10-07T04:32:10.979Z,37.00
2022-10-07T04:35:15.225Z,39.25
2022-10-07T04:38:23.259Z,44.00
2022-10-07T04:41:29.116Z,40.00
2022-10-07T04:44:32.857Z,36.50
2022-10-07T04:47:42.196Z,38.25
2022-10-07T04:50:46.971Z,37.00
2022-10-07T04:53:56.900Z,35.75
2022-10-07T04:57:06.509Z,37.00
2022-10-07T05:00:11.501Z,40.25
2022-10-07T05:03:16.623Z,42.50
2022-10-07T05:06:20.395Z,77.25
2022-10-07T05:09:44.140Z,49.75
2022-10-07T05:12:53.803Z,43.25
2022-10-07T05:16:01.449Z,48.75
2022-10-07T05:19:05.474Z,50.50
2022-10-07T05:22:09.753Z,47.75
2022-10-07T05:25:15.098Z,58.50
2022-10-07T05:28:19.994Z,68.75
2022-10-07T05:31:23.698Z,55.75
2022-10-07T05:34:31.548Z,49.50
2022-10-07T05:37:36.426Z,2.75
2022-10-07T05:40:42.898Z,52.25
2022-10-07T05:43:48.250Z,77.67
2022-10-07T05:46:54.331Z,59.75
2022-10-07T05:49:59.123Z,55.25
2022-10-07T05:53:03.998Z,77.25
2022-10-07T05:56:11.048Z,60.25
2022-10-07T05:59:15.479Z,61.25
2022-10-07T06:02:21.141Z,53.00
2022-10-07T06:05:26.467Z,55.50
2022-10-07T06:08:30.150Z,59.50
2022-10-07T06:11:55.347Z,58.00
2022-10-07T06:14:59.476Z,47.25
2022-10-07T06:18:04.487Z,53.50
2022-10-07T06:21:08.218Z,56.00
2022-10-07T06:24:12.519Z,58.75
2022-10-07T06:27:17.281Z,60.75
2022-10-07T06:30:25.851Z,55.25
2022-10-07T06:33:30.564Z,53.00
2022-10-07T06:36:34.356Z,55.75
2022-10-07T06:39:38.050Z,55.25
2022-10-07T06:42:43.132Z,51.50
2022-10-07T06:46:07.742Z,52.00
2022-10-07T06:49:12.160Z,56.25
2022-10-07T06:52:16.059Z,53.50
2022-10-07T06:55:20.033Z,51.50
2022-10-07T06:58:26.205Z,53.25
2022-10-07T07:01:31.343Z,50.50
2022-10-07T07:04:35.279Z,47.75
2022-10-07T07:07:39.351Z,47.75
2022-10-07T07:10:44.794Z,48.00
2022-10-07T07:13:50.845Z,43.75
2022-10-07T07:16:54.650Z,41.50
2022-10-07T07:20:01.099Z,41.25
2022-10-07T07:23:11.265Z,40.25
2022-10-07T07:26:15.872Z,41.00
2022-10-07T07:29:21.332Z,34.75
2022-10-07T07:32:30.747Z,45.00
2022-10-07T07:35:40.001Z,43.75
2022-10-07T07:38:45.245Z,40.75
2022-10-07T07:41:50.899Z,44.50
2022-10-07T07:45:01.177Z,43.00
2022-10-07T07:48:05.499Z,41.50
2022-10-07T07:51:11.742Z,39.25
2022-10-07T07:54:16.289Z,39.25
2022-10-07T07:57:24.494Z,39.00
2022-10-07T08:00:29.552Z,39.25
2022-10-07T08:03:43.199Z,40.75
2022-10-07T08:06:47.126Z,36.00
2022-10-07T08:09:51.076Z,40.50
2022-10-07T08:12:55.162Z,36.25
2022-10-07T08:16:00.774Z,34.25
2022-10-07T08:19:04.326Z,32.25
2022-10-07T08:22:09.008Z,32.50
2022-10-07T08:25:13.263Z,32.00
2022-10-07T08:28:17.401Z,31.25
2022-10-07T08:31:28.105Z,28.75
2022-10-07T08:34:47.818Z,28.00
2022-10-07T08:37:52.021Z,25.33
2022-10-07T08:40:55.483Z,26.33
2022-10-07T08:44:01.162Z,28.00
2022-10-07T08:47:16.793Z,24.00
2022-10-07T08:50:26.193Z,29.50
2022-10-07T08:53:34.525Z,27.25
2022-10-07T08:56:38.276Z,19.67
2022-10-07T08:59:50.541Z,19.00
2022-10-07T09:03:07.522Z,17.00
2022-10-07T09:06:28.537Z,17.00
2022-10-07T09:09:37.178Z,14.00
2022-10-07T09:12:49.080Z,8.00
2022-10-07T09:16:00.471Z,9.67
2022-10-07T09:19:06.728Z,11.33
2022-10-07T09:22:21.405Z,11.00
2022-10-07T09:25:27.617Z,13.00
2022-10-07T09:28:34.265Z,11.00
2022-10-07T09:31:38.962Z,11.67
2022-10-07T09:34:44.316Z,13.00
2022-10-07T09:38:00.231Z,13.33
2022-10-07T09:41:21.043Z,12.67
2022-10-07T09:44:29.611Z,11.33
2022-10-07T09:47:40.775Z,10.67
2022-10-07T09:50:46.915Z,18.67
2022-10-07T09:53:59.867Z,10.67
2022-10-07T09:57:06.688Z,11.00
2022-10-07T10:00:22.852Z,15.00
2022-10-07T10:03:31.338Z,11.00
2022-10-07T10:06:39.265Z,10.67
2022-10-07T10:09:51.116Z,13.33
2022-10-07T10:12:59.202Z,10.00
2022-10-07T10:16:04.529Z,11.00
2022-10-07T10:19:24.131Z,13.33
2022-10-07T10:22:31.450Z,10.33
2022-10-07T10:26:06.282Z,11.00
2022-10-07T10:29:20.129Z,12.67
2022-10-07T10:32:46.265Z,10.00
2022-10-07T10:35:57.799Z,18.33
2022-10-07T10:39:14.104Z,8.33
2022-10-07T10:42:25.649Z,8.33
2022-10-07T10:45:38.912Z,9.67
2022-10-07T10:49:21.242Z,9.33
2022-10-07T10:52:50.029Z,5.33
2022-10-07T10:56:43.240Z,4.00
2022-10-07T11:00:19.135Z,6.67
2022-10-07T11:03:35.410Z,6.00
2022-10-07T11:06:41.578Z,5.00
2022-10-07T11:09:51.212Z,5.00
2022-10-07T11:13:00.083Z,5.00
2022-10-07T11:16:11.194Z,5.00
2022-10-07T11:19:20.601Z,8.00
2022-10-07T11:22:33.003Z,6.00
2022-10-07T11:25:43.467Z,4.33
2022-10-07T11:28:52.421Z,4.33
2022-10-07T11:32:01.422Z,5.00
2022-10-07T11:35:29.956Z,5.33
2022-10-07T11:38:38.974Z,6.33
2022-10-07T11:41:50.093Z,4.00
2022-10-07T11:45:01.814Z,5.00
2022-10-07T11:48:12.151Z,4.00
2022-10-07T11:51:24.422Z,3.67
2022-10-07T11:54:33.010Z,5.00
2022-10-07T11:57:39.977Z,4.33
2022-10-07T12:00:45.353Z,7.00
2022-10-07T12:03:49.145Z,7.00
2022-10-07T12:07:30.292Z,8.00
2022-10-07T12:10:34.905Z,17.00
2022-10-07T12:13:42.844Z,2.00
2022-10-07T12:16:56.483Z,7.33
2022-10-07T12:20:39.327Z,8.00
2022-10-07T12:23:44.200Z,9.00
2022-10-07T12:27:12.420Z,7.00
2022-10-07T12:30:42.774Z,7.67
2022-10-07T12:33:58.737Z,7.67
2022-10-07T12:37:39.452Z,28.67
2022-10-07T12:40:46.541Z,15.00
2022-10-07T12:43:56.558Z,22.67
2022-10-07T12:47:06.953Z,9.33
2022-10-07T12:50:19.571Z,15.33
2022-10-07T12:53:27.861Z,11.00
2022-10-07T12:56:31.926Z,9.00
2022-10-07T12:59:51.711Z,12.67
2022-10-07T13:03:25.161Z,9.00
2022-10-07T13:07:11.681Z,12.00
2022-10-07T13:10:50.203Z,12.50
2022-10-07T13:14:02.052Z,9.33
2022-10-07T13:17:24.216Z,12.33
2022-10-07T13:20:39.289Z,9.00
2022-10-07T13:23:51.917Z,12.00
2022-10-07T13:26:58.661Z,6.00
2022-10-07T13:30:06.559Z,9.67
2022-10-07T13:33:24.613Z,10.33
2022-10-07T13:36:29.798Z,9.00
2022-10-07T13:39:33.532Z,7.33
2022-10-07T13:42:38.973Z,9.00
2022-10-07T13:45:49.920Z,9.67
2022-10-07T13:48:56.431Z,11.67
2022-10-07T13:52:03.939Z,7.00
2022-10-07T13:55:21.073Z,8.00
2022-10-07T13:58:26.814Z,9.00
2022-10-07T14:01:32.731Z,7.00
2022-10-07T14:04:36.877Z,10.00
2022-10-07T14:07:43.501Z,11.33
2022-10-07T14:10:54.368Z,9.00
2022-10-07T14:14:00.883Z,12.00
2022-10-07T14:17:11.715Z,21.33
2022-10-07T14:20:23.080Z,25.67
2022-10-07T14:23:31.285Z,29.75
2022-10-07T14:26:44.608Z,14.67
2022-10-07T14:29:52.520Z,16.00
2022-10-07T14:33:32.309Z,17.00
2022-10-07T14:36:37.207Z,22.33
2022-10-07T14:39:42.541Z,25.00
2022-10-07T14:42:47.356Z,35.00
2022-10-07T14:45:52.517Z,30.00
2022-10-07T14:48:56.447Z,25.75
2022-10-07T14:52:01.519Z,22.00
2022-10-07T14:55:08.695Z,21.67
2022-10-07T14:58:12.625Z,22.50
2022-10-07T15:01:18.878Z,30.25
2022-10-07T15:04:22.933Z,26.00
2022-10-07T15:07:26.880Z,16.00
2022-10-07T15:10:32.469Z,11.00
2022-10-07T15:13:36.278Z,17.33
2022-10-07T15:16:41.681Z,17.00
2022-10-07T15:19:45.389Z,21.00
2022-10-07T15:22:49.177Z,21.33
2022-10-07T15:25:53.335Z,30.00
2022-10-07T15:28:58.248Z,32.00
2022-10-07T15:32:03.644Z,31.75
2022-10-07T15:35:08.051Z,28.25
2022-10-07T15:38:11.962Z,32.67
2022-10-07T15:41:30.680Z,76.00
2022-10-07T15:44:34.473Z,56.75
2022-10-07T15:47:39.555Z,71.25
2022-10-07T15:50:47.949Z,100.75
2022-10-07T15:53:51.398Z,61.25
2022-10-07T15:56:55.021Z,78.50
2022-10-07T15:59:58.594Z,56.00
2022-10-07T16:03:04.709Z,53.50
2022-10-07T16:06:10.440Z,56.50
2022-10-07T16:09:14.778Z,62.25
2022-10-07T16:12:18.184Z,61.00
2022-10-07T16:15:22.056Z,53.75
2022-10-07T16:18:27.099Z,44.00
2022-10-07T16:21:32.171Z,43.00
2022-10-07T16:24:37.746Z,53.75
2022-10-07T16:27:58.760Z,54.75
2022-10-07T16:31:02.310Z,91.00
2022-10-07T16:34:08.423Z,80.75
2022-10-07T16:37:12.351Z,58.50
2022-10-07T16:40:15.900Z,65.25
2022-10-07T16:43:19.371Z,57.25
2022-10-07T16:46:23.160Z,56.75
2022-10-07T16:49:30.345Z,66.25
2022-10-07T16:52:35.033Z,51.00
2022-10-07T16:55:38.412Z,50.50
2022-10-07T16:58:42.545Z,60.75
2022-10-07T17:01:46.014Z,53.75
2022-10-07T17:04:51.429Z,66.00
2022-10-07T17:07:54.773Z,59.25
2022-10-07T17:10:58.478Z,55.25
2022-10-07T17:14:04.346Z,81.75
2022-10-07T17:17:08.859Z,55.75
2022-10-07T17:20:14.271Z,55.25
2022-10-07T17:23:21.024Z,47.00
2022-10-07T17:26:24.766Z,43.75
2022-10-07T17:29:31.006Z,54.50
2022-10-07T17:32:34.450Z,49.50
2022-10-07T17:35:40.772Z,59.50
2022-10-07T17:38:45.833Z,50.75
2022-10-07T17:41:49.767Z,55.25
2022-10-07T17:44:53.619Z,43.00
2022-10-07T17:47:57.782Z,43.00
2022-10-07T17:51:05.446Z,45.75
2022-10-07T17:54:09.626Z,47.00
2022-10-07T17:57:12.978Z,45.75
2022-10-07T18:00:17.064Z,53.00
2022-10-07T18:03:20.446Z,48.50
2022-10-07T18:06:27.322Z,41.00
2022-10-07T18:09:30.629Z,52.25
2022-10-07T18:12:51.483Z,53.00
2022-10-07T18:16:06.184Z,44.00
2022-10-07T18:19:10.414Z,42.25
2022-10-07T18:22:17.459Z,46.00
2022-10-07T18:25:21.190Z,53.00
2022-10-07T18:28:26.086Z,46.75
2022-10-07T18:31:30.487Z,47.00
2022-10-07T18:34:34.205Z,45.25
2022-10-07T18:37:39.438Z,40.75
2022-10-07T18:45:15.113Z,49.00
2022-10-07T18:48:18.549Z,43.00
2022-10-07T18:51:22.209Z,53.75
2022-10-07T18:54:27.192Z,52.50
2022-10-07T18:57:30.914Z,54.00
2022-10-07T19:00:35.125Z,49.00
2022-10-07T19:03:38.958Z,52.25
2022-10-07T19:06:45.258Z,47.00
2022-10-07T19:09:51.251Z,44.25
2022-10-07T19:13:16.058Z,45.75
2022-10-07T19:16:25.231Z,36.50
2022-10-07T19:19:30.267Z,38.25
2022-10-07T19:22:34.120Z,42.25
2022-10-07T19:25:49.490Z,36.00
2022-10-07T19:28:55.062Z,38.00
2022-10-07T19:32:01.361Z,42.75
2022-10-07T19:35:07.633Z,47.75
2022-10-07T19:38:11.316Z,43.25
2022-10-07T19:41:18.447Z,38.00
2022-10-07T19:44:22.413Z,38.50
2022-10-07T19:47:26.311Z,38.50
2022-10-07T19:50:30.045Z,36.00
2022-10-07T19:53:35.726Z,44.75
2022-10-07T19:57:32.061Z,44.00
2022-10-07T20:00:37.607Z,40.50
2022-10-07T20:03:41.072Z,42.00
2022-10-07T20:06:48.022Z,48.75
2022-10-07T20:09:51.684Z,42.00
2022-10-07T20:12:55.668Z,38.50
2022-10-07T20:16:10.944Z,37.00
2022-10-07T20:19:18.878Z,23.50
2022-10-07T20:22:23.949Z,37.50
2022-10-07T20:25:28.120Z,33.50
2022-10-07T20:28:31.987Z,36.25
2022-10-07T20:31:40.002Z,38.25
2022-10-07T20:34:43.786Z,40.75
2022-10-07T20:37:47.764Z,36.00
2022-10-07T20:41:25.615Z,39.00
2022-10-07T20:44:29.740Z,43.50
2022-10-07T20:47:35.789Z,38.25
2022-10-07T20:50:39.904Z,38.75
2022-10-07T20:53:48.863Z,39.25
2022-10-07T20:56:54.737Z,39.00
2022-10-07T20:59:59.028Z,38.75
2022-10-07T21:03:04.386Z,37.00
2022-10-07T21:06:08.582Z,34.00
2022-10-07T21:09:14.155Z,39.00
2022-10-07T21:12:19.217Z,37.00
2022-10-07T21:15:23.162Z,37.00
2022-10-07T21:18:28.383Z,43.75
2022-10-07T21:21:32.646Z,41.75
2022-10-07T21:24:36.846Z,39.75
2022-10-07T21:27:41.183Z,43.25
2022-10-07T21:30:46.103Z,47.25
2022-10-07T21:33:53.164Z,48.75
2022-10-07T21:36:57.729Z,39.25
2022-10-07T21:40:01.632Z,43.25
2022-10-07T21:43:05.172Z,42.75
2022-10-07T21:46:09.363Z,38.25
2022-10-07T21:49:15.017Z,36.75
2022-10-07T21:52:18.839Z,39.50
2022-10-07T21:55:22.545Z,32.25
2022-10-07T21:58:30.941Z,38.50
2022-10-07T22:01:34.407Z,37.50
2022-10-07T22:04:39.557Z,36.25
2022-10-07T22:08:00.393Z,37.50
2022-10-07T22:11:05.396Z,37.25
2022-10-07T22:14:12.777Z,36.25
2022-10-07T22:17:17.108Z,21.25
2022-10-07T22:20:22.103Z,33.25
2022-10-07T22:23:25.794Z,37.75
2022-10-07T22:26:32.717Z,37.50
2022-10-07T22:29:38.659Z,33.75
2022-10-07T22:32:42.199Z,34.75
2022-10-07T22:35:47.322Z,40.00
2022-10-07T22:38:51.604Z,34.50
2022-10-07T22:41:55.688Z,32.75
2022-10-07T22:44:59.130Z,36.00
2022-10-07T22:48:03.122Z,35.00
2022-10-07T22:51:11.623Z,41.00
2022-10-07T22:54:16.156Z,32.50
2022-10-07T22:57:19.602Z,37.00
2022-10-07T23:00:23.371Z,38.75
2022-10-07T23:03:28.362Z,36.25
2022-10-07T23:06:36.907Z,40.75
2022-10-07T23:09:41.289Z,39.00
2022-10-07T23:12:45.345Z,37.25
2022-10-07T23:15:56.441Z,38.00
2022-10-07T23:19:00.959Z,37.25
2022-10-07T23:22:09.633Z,35.25
2022-10-07T23:25:13.661Z,31.75
2022-10-07T23:28:17.418Z,38.75
2022-10-07T23:31:24.757Z,39.25
2022-10-07T23:34:28.622Z,40.50
2022-10-07T23:37:35.303Z,39.00
2022-10-07T23:40:38.787Z,39.25
2022-10-07T23:43:42.929Z,37.50
2022-10-07T23:46:46.755Z,31.75
2022-10-07T23:49:50.616Z,37.00
2022-10-07T23:52:55.477Z,39.00
2022-10-07T23:56:00.058Z,36.50
2022-10-07T23:59:03.947Z,36.75
